Lake Gardens, New York
Current Conditions -  °F | °C
As of 4:48 PM on Thursday 23 Oct 2014 (Local Time) from KLGA Reporting Station
Overcast Overcast  
Wind Chill: 54°   Ceiling: 3900
Heat Index: 54°   Visibility: 10mi
Dew Point: 46°   Wind: 22mph
Humidity: 77%   Direction: 340°NNW
Pressure: 29.69"   Gusts: 28mph
Location:  40.7913°N, 73.7412°W
Report Text: KLGA 232048Z 34019G24KT 10SM SCT026 SCT030 OVC039 12/08 A2969 RMK AO2 PK WND 34026/2003
Loading
Personal Weather Stations






























Interactive Weather Map
Tropical Storm Tracking
New forecast layout! Learn more

10-Day Weather Forecast

Advertisements
Track Severe Weather on mobile